KSLR

Sulphur Springs Municipal Airport

Sulphur Springs, Texas, USA
METAR KSLR 260355Z AUTO 00000KT 10SM CLR 23/19 A2989 RMK AO2 T02310185
Observed Flight Rules
May-26 @ 03:55 UTC (21 minutes ago) Visual Flight Rules
Visibility Clouds
10 miles
  • Clear skies
Temperatures Readings
Current 23°C / 73°F
Dewpoint 19°C / 66°F
Humidity 78%
Altimeter 29.89" Hg
Pressure 1012 hPa
Elevation 149
METAR KSLR 260355Z AUTO 00000KT 10SM CLR 23/19 A2989 RMK AO2 T02310185
Observed Flight Rules
May-26 @ 03:55 UTC
(21 minutes ago)
VFR
Clouds
  • Clear skies
Temperature Dewpoint
23°C / 73°F 19°C / 66°F
Humidity Altimeter Pressure
78% 29.89" Hg 1012 hPa